Time;durP1;ratioP1;P1;durP2;ratioP2;P2;SDS_P1;SDS_P2;PMS_P1;PMS_P2;Temp;Humidity;BMP_temperature;BMP_pressure;BME280_temperature;BME280_humidity;BME280_pressure;Samples;Min_cycle;Max_cycle;Signal;HPM_P1;HPM_P2
2022/07/25 00:01:42;;;;;;;13.93;9.93;;;;;;;;;;4914835;29;20290;-70
2022/07/25 00:04:10;;;;;;;10.77;8.93;;;;;;;;;;4899234;29;20115;-70
2022/07/25 00:06:38;;;;;;;10.57;9.52;;;;;;;;;;4914930;29;20059;-70
2022/07/25 00:09:05;;;;;;;10.20;9.30;;;;;;;;;;4914747;29;20499;-70
2022/07/25 00:11:32;;;;;;;12.07;10.73;;;;;;;;;;4914864;29;20058;-70
2022/07/25 00:13:58;;;;;;;18.48;9.35;;;;;;;;;;4898960;29;20438;-71
2022/07/25 00:16:25;;;;;;;9.35;8.45;;;;;;;;;;4914574;29;20075;-70
2022/07/25 00:18:52;;;;;;;11.60;9.27;;;;;;;;;;4914279;29;20130;-70
2022/07/25 00:21:18;;;;;;;9.85;8.80;;;;;;;;;;4914224;29;20055;-70
2022/07/25 00:23:45;;;;;;;10.45;9.50;;;;;;;;;;4915490;29;20067;-70
2022/07/25 00:26:13;;;;;;;10.43;9.38;;;;;;;;;;4914472;29;20056;-70
2022/07/25 00:28:39;;;;;;;10.80;9.70;;;;;;;;;;4914324;29;20490;-70
2022/07/25 00:31:06;;;;;;;9.57;8.68;;;;;;;;;;4915566;29;20062;-70
2022/07/25 00:33:33;;;;;;;9.68;8.77;;;;;;;;;;4914289;29;20504;-70
2022/07/25 00:36:00;;;;;;;9.73;8.82;;;;;;;;;;4898687;29;20052;-70
2022/07/25 00:38:26;;;;;;;10.35;9.35;;;;;;;;;;4914192;29;20050;-70
2022/07/25 00:40:53;;;;;;;10.32;9.32;;;;;;;;;;4915707;29;20532;-70
2022/07/25 00:43:22;;;;;;;10.32;9.32;;;;;;;;;;4914004;29;20091;-70
2022/07/25 00:45:49;;;;;;;10.00;9.00;;;;;;;;;;4915507;29;20052;-70
2022/07/25 00:48:16;;;;;;;9.45;8.57;;;;;;;;;;4914389;29;20396;-70
2022/07/25 00:50:42;;;;;;;11.55;9.57;;;;;;;;;;4915470;29;20048;-70
2022/07/25 00:53:10;;;;;;;11.88;10.40;;;;;;;;;;4914379;29;20423;-70
2022/07/25 00:55:36;;;;;;;10.68;9.65;;;;;;;;;;4918310;29;20054;-70
2022/07/25 00:58:03;;;;;;;10.07;9.13;;;;;;;;;;4917879;29;20056;-70
2022/07/25 01:00:29;;;;;;;10.80;9.70;;;;;;;;;;4918223;29;20055;-70
2022/07/25 01:02:57;;;;;;;11.70;10.57;;;;;;;;;;4917826;29;20059;-70
2022/07/25 01:05:24;;;;;;;10.57;9.57;;;;;;;;;;4902212;29;20056;-70
2022/07/25 01:07:51;;;;;;;11.43;10.30;;;;;;;;;;4919144;29;20054;-70
2022/07/25 01:10:18;;;;;;;10.80;9.80;;;;;;;;;;4917851;29;20058;-71
2022/07/25 01:12:50;;;;;;;10.15;9.25;;;;;;;;;;4918148;29;20068;-70
2022/07/25 01:15:21;;;;;;;9.80;8.88;;;;;;;;;;4917694;29;20055;-71
2022/07/25 01:17:48;;;;;;;9.98;9.05;;;;;;;;;;4917749;29;20059;-71
2022/07/25 01:20:19;;;;;;;11.73;9.05;;;;;;;;;;4917707;29;20067;-70
2022/07/25 01:22:45;;;;;;;10.27;8.65;;;;;;;;;;4898472;29;20059;-70
2022/07/25 01:25:13;;;;;;;9.32;8.52;;;;;;;;;;4898885;29;20052;-70
2022/07/25 01:27:40;;;;;;;8.98;8.18;;;;;;;;;;4898703;29;20049;-70
2022/07/25 01:30:09;;;;;;;10.07;9.15;;;;;;;;;;4883079;29;20069;-70
2022/07/25 01:32:35;;;;;;;9.32;8.45;;;;;;;;;;4898634;29;20056;-70
2022/07/25 01:35:05;;;;;;;11.27;9.45;;;;;;;;;;4899094;29;20056;-70
2022/07/25 01:37:31;;;;;;;10.27;9.20;;;;;;;;;;4914007;29;20049;-70
2022/07/25 01:39:58;;;;;;;12.07;9.18;;;;;;;;;;4882843;29;20063;-70
2022/07/25 01:42:25;;;;;;;10.25;8.98;;;;;;;;;;4914023;29;20115;-70
2022/07/25 01:44:52;;;;;;;9.85;8.93;;;;;;;;;;4913916;29;20501;-70
2022/07/25 01:47:18;;;;;;;9.55;8.60;;;;;;;;;;4891472;29;20386;-70
2022/07/25 01:49:45;;;;;;;10.23;9.20;;;;;;;;;;4899490;29;20075;-71
2022/07/25 01:52:12;;;;;;;10.43;9.35;;;;;;;;;;4913805;29;20048;-70
2022/07/25 01:54:39;;;;;;;11.30;10.20;;;;;;;;;;4913752;29;20075;-70
2022/07/25 01:57:09;;;;;;;10.50;9.57;;;;;;;;;;4898147;29;20096;-70
2022/07/25 01:59:38;;;;;;;10.88;9.80;;;;;;;;;;4913577;29;20053;-70
2022/07/25 02:02:06;;;;;;;10.65;9.65;;;;;;;;;;4909859;29;20439;-70
2022/07/25 02:04:33;;;;;;;11.07;9.98;;;;;;;;;;4917541;29;20061;-70
2022/07/25 02:07:00;;;;;;;10.20;9.23;;;;;;;;;;4916334;29;20060;-70
2022/07/25 02:09:27;;;;;;;11.15;9.95;;;;;;;;;;4916586;29;20052;-70
2022/07/25 02:11:53;;;;;;;10.23;9.25;;;;;;;;;;4916882;29;20056;-68
2022/07/25 02:14:21;;;;;;;10.50;9.18;;;;;;;;;;4916629;29;20056;-69
2022/07/25 02:16:48;;;;;;;10.18;9.20;;;;;;;;;;4916701;29;20054;-69
2022/07/25 02:19:15;;;;;;;10.02;8.98;;;;;;;;;;4916615;29;20056;-70
2022/07/25 02:21:42;;;;;;;9.25;8.45;;;;;;;;;;4916728;29;20056;-70
2022/07/25 02:24:09;;;;;;;9.73;8.82;;;;;;;;;;4916514;29;20062;-70
2022/07/25 02:26:36;;;;;;;9.55;8.65;;;;;;;;;;4916623;29;20048;-70
2022/07/25 02:29:03;;;;;;;9.13;8.38;;;;;;;;;;4916411;29;20080;-70
2022/07/25 02:31:29;;;;;;;10.02;9.05;;;;;;;;;;4917491;29;20078;-70
2022/07/25 02:33:56;;;;;;;9.65;8.75;;;;;;;;;;4916538;29;20518;-70
2022/07/25 02:36:22;;;;;;;10.23;8.95;;;;;;;;;;4916619;29;20075;-70
2022/07/25 02:38:49;;;;;;;9.88;8.90;;;;;;;;;;4917415;29;20052;-70
2022/07/25 02:41:16;;;;;;;11.30;8.45;;;;;;;;;;4916228;29;20051;-70
2022/07/25 02:43:42;;;;;;;9.82;8.93;;;;;;;;;;4916182;29;20063;-70
2022/07/25 02:46:09;;;;;;;10.50;9.40;;;;;;;;;;4916030;29;20052;-70
2022/07/25 02:48:36;;;;;;;9.45;8.52;;;;;;;;;;4915965;29;20420;-70
2022/07/25 02:51:03;;;;;;;9.40;8.35;;;;;;;;;;4917409;29;20052;-70
2022/07/25 02:53:29;;;;;;;8.98;8.07;;;;;;;;;;4917578;29;20059;-70
2022/07/25 02:56:16;;;;;;;9.60;8.45;;;;;;;;;;4917327;29;20400;-70
2022/07/25 02:58:46;;;;;;;9.68;8.07;;;;;;;;;;4915756;29;20044;-70
2022/07/25 03:01:13;;;;;;;9.00;8.20;;;;;;;;;;4900348;29;20056;-70
2022/07/25 03:03:40;;;;;;;9.75;8.85;;;;;;;;;;4915840;29;20062;-70
2022/07/25 03:06:06;;;;;;;8.80;7.90;;;;;;;;;;4916046;29;20056;-70
2022/07/25 03:08:33;;;;;;;8.70;7.85;;;;;;;;;;4915691;29;20048;-70
2022/07/25 03:11:00;;;;;;;10.13;9.02;;;;;;;;;;4915733;29;20492;-70
2022/07/25 03:13:26;;;;;;;9.57;8.23;;;;;;;;;;4915690;29;20495;-70
2022/07/25 03:15:53;;;;;;;8.32;7.63;;;;;;;;;;4915556;29;20058;-69
2022/07/25 03:18:20;;;;;;;9.43;8.57;;;;;;;;;;4916551;29;20044;-69
2022/07/25 03:20:46;;;;;;;9.23;8.02;;;;;;;;;;4916819;29;20052;-69
2022/07/25 03:23:13;;;;;;;9.65;8.52;;;;;;;;;;4916804;29;20051;-70
2022/07/25 03:25:39;;;;;;;9.07;8.00;;;;;;;;;;4916609;29;20068;-69
2022/07/25 03:28:06;;;;;;;9.57;8.13;;;;;;;;;;4915356;29;20131;-69
2022/07/25 03:30:33;;;;;;;9.02;8.13;;;;;;;;;;4916796;29;20131;-70
2022/07/25 03:32:59;;;;;;;10.13;9.13;;;;;;;;;;4912153;29;20078;-70
2022/07/25 03:35:26;;;;;;;9.10;8.20;;;;;;;;;;4896319;29;20500;-70
2022/07/25 03:37:53;;;;;;;10.25;8.40;;;;;;;;;;4897343;29;20420;-70
2022/07/25 03:40:20;;;;;;;8.95;7.97;;;;;;;;;;4896289;29;20052;-70
2022/07/25 03:42:46;;;;;;;8.95;8.10;;;;;;;;;;4906928;29;20068;-70
2022/07/25 03:45:13;;;;;;;9.60;8.02;;;;;;;;;;4896194;29;20060;-70
2022/07/25 03:47:39;;;;;;;9.20;8.30;;;;;;;;;;4897387;29;20063;-70
2022/07/25 03:50:07;;;;;;;9.27;8.25;;;;;;;;;;4897449;29;20048;-71
2022/07/25 03:52:34;;;;;;;8.38;7.65;;;;;;;;;;4911683;29;20052;-70
2022/07/25 03:55:01;;;;;;;9.45;8.55;;;;;;;;;;4880759;29;20056;-71
2022/07/25 03:57:27;;;;;;;8.85;8.05;;;;;;;;;;4897367;29;20053;-70
2022/07/25 03:59:54;;;;;;;9.63;8.27;;;;;;;;;;4897114;29;20052;-70
2022/07/25 04:02:21;;;;;;;11.32;8.75;;;;;;;;;;4907119;29;20058;-71
2022/07/25 04:04:47;;;;;;;9.27;7.90;;;;;;;;;;4914585;29;20056;-70
2022/07/25 04:07:14;;;;;;;9.48;8.43;;;;;;;;;;4937861;23;20052;-70
2022/07/25 04:09:41;;;;;;;8.95;8.07;;;;;;;;;;4916001;29;20059;-70
2022/07/25 04:12:08;;;;;;;9.50;8.50;;;;;;;;;;4916014;29;20048;-70
2022/07/25 04:14:34;;;;;;;9.18;8.27;;;;;;;;;;4915981;29;20087;-67
2022/07/25 04:17:01;;;;;;;9.82;8.95;;;;;;;;;;4915621;29;20050;-69
2022/07/25 04:19:28;;;;;;;10.30;7.95;;;;;;;;;;4913554;29;20455;-69
2022/07/25 04:21:55;;;;;;;9.82;8.82;;;;;;;;;;4915677;29;20558;-68
2022/07/25 04:24:22;;;;;;;9.52;8.43;;;;;;;;;;4914783;29;20070;-68
2022/07/25 04:26:49;;;;;;;9.70;8.40;;;;;;;;;;4912728;29;20079;-69
2022/07/25 04:29:15;;;;;;;9.10;8.30;;;;;;;;;;4914778;29;20048;-69
2022/07/25 04:31:42;;;;;;;9.82;8.82;;;;;;;;;;4914575;29;20056;-70
2022/07/25 04:34:09;;;;;;;10.15;8.63;;;;;;;;;;4916238;29;20076;-69
2022/07/25 04:36:36;;;;;;;9.85;8.70;;;;;;;;;;4915551;29;20056;-69
2022/07/25 04:39:03;;;;;;;9.57;8.65;;;;;;;;;;4915268;29;20419;-69
2022/07/25 04:41:29;;;;;;;9.50;8.60;;;;;;;;;;4915569;29;20056;-69
2022/07/25 04:43:56;;;;;;;9.65;8.65;;;;;;;;;;4915755;29;20052;-69
2022/07/25 04:46:23;;;;;;;9.88;8.88;;;;;;;;;;4915744;29;20056;-69
2022/07/25 04:48:50;;;;;;;10.00;9.10;;;;;;;;;;4915987;29;20056;-69
2022/07/25 04:51:17;;;;;;;10.80;9.70;;;;;;;;;;4914514;29;20480;-68
2022/07/25 04:53:43;;;;;;;9.65;8.80;;;;;;;;;;4915434;29;20048;-68
2022/07/25 04:56:10;;;;;;;13.73;9.02;;;;;;;;;;4915546;29;20058;-69
2022/07/25 04:58:37;;;;;;;10.90;9.55;;;;;;;;;;4915262;29;20052;-69
2022/07/25 05:01:04;;;;;;;10.25;9.23;;;;;;;;;;4915546;29;20056;-69
2022/07/25 05:03:31;;;;;;;11.70;9.70;;;;;;;;;;4915615;29;20127;-70
2022/07/25 05:05:57;;;;;;;11.30;9.95;;;;;;;;;;4915332;29;20055;-69
2022/07/25 05:08:24;;;;;;;9.55;8.57;;;;;;;;;;4915315;29;20063;-69
2022/07/25 05:10:51;;;;;;;11.20;9.27;;;;;;;;;;4915675;29;20060;-71
2022/07/25 05:13:19;;;;;;;10.70;9.60;;;;;;;;;;4915908;29;20048;-71
2022/07/25 05:15:46;;;;;;;9.60;8.80;;;;;;;;;;4915985;29;20048;-70
2022/07/25 05:18:12;;;;;;;10.35;9.10;;;;;;;;;;4915970;29;20051;-71
2022/07/25 05:20:40;;;;;;;11.98;9.75;;;;;;;;;;4916443;29;20054;-71
2022/07/25 05:23:06;;;;;;;11.18;9.90;;;;;;;;;;4916051;29;20056;-70
2022/07/25 05:25:33;;;;;;;10.75;9.25;;;;;;;;;;4914062;29;20056;-70
2022/07/25 05:28:01;;;;;;;11.82;9.68;;;;;;;;;;4913035;29;20058;-71
2022/07/25 05:30:28;;;;;;;10.88;9.50;;;;;;;;;;4913745;29;20059;-71
2022/07/25 05:32:54;;;;;;;11.07;9.80;;;;;;;;;;4913858;29;20052;-70
2022/07/25 05:35:21;;;;;;;10.18;9.27;;;;;;;;;;4913826;29;20048;-70
2022/07/25 05:37:48;;;;;;;10.52;8.95;;;;;;;;;;4913833;29;20056;-70
2022/07/25 05:40:14;;;;;;;11.15;9.45;;;;;;;;;;4913607;29;20087;-70
2022/07/25 05:42:41;;;;;;;10.07;9.15;;;;;;;;;;4916959;29;20146;-70
2022/07/25 05:45:08;;;;;;;12.48;9.18;;;;;;;;;;4917176;29;20060;-70
2022/07/25 05:47:35;;;;;;;10.02;9.02;;;;;;;;;;4916940;29;20079;-70
2022/07/25 05:50:02;;;;;;;11.25;10.13;;;;;;;;;;4916546;29;20106;-70
2022/07/25 05:52:29;;;;;;;10.40;9.38;;;;;;;;;;4916396;29;20723;-70
2022/07/25 05:54:55;;;;;;;15.32;9.50;;;;;;;;;;4917099;29;20051;-70
2022/07/25 05:57:22;;;;;;;10.80;9.43;;;;;;;;;;4916901;29;20052;-70
2022/07/25 05:59:49;;;;;;;10.63;9.52;;;;;;;;;;4916753;29;20056;-70
2022/07/25 06:02:15;;;;;;;12.82;9.10;;;;;;;;;;4916778;29;20521;-71
2022/07/25 06:04:42;;;;;;;10.13;9.10;;;;;;;;;;4916829;29;20051;-71
2022/07/25 06:07:09;;;;;;;13.02;10.02;;;;;;;;;;4916572;29;20056;-71
2022/07/25 06:09:40;;;;;;;10.77;9.77;;;;;;;;;;4916639;29;20067;-70
2022/07/25 06:12:06;;;;;;;9.95;8.95;;;;;;;;;;4916505;29;20400;-71
2022/07/25 06:14:33;;;;;;;10.25;9.02;;;;;;;;;;4916658;29;20062;-70
2022/07/25 06:17:01;;;;;;;11.27;9.55;;;;;;;;;;4916443;29;20060;-70
2022/07/25 06:19:27;;;;;;;9.27;8.38;;;;;;;;;;4915715;29;20125;-70
2022/07/25 06:21:54;;;;;;;10.20;9.20;;;;;;;;;;4916606;29;20091;-71
2022/07/25 06:24:21;;;;;;;10.13;8.80;;;;;;;;;;4916546;29;20052;-71
2022/07/25 06:26:47;;;;;;;10.68;8.75;;;;;;;;;;4916295;29;20052;-69
2022/07/25 06:29:14;;;;;;;13.90;9.13;;;;;;;;;;4915960;29;20052;-69
2022/07/25 06:31:41;;;;;;;9.18;8.15;;;;;;;;;;4915931;29;20055;-69
2022/07/25 06:34:12;;;;;;;8.95;8.02;;;;;;;;;;4916604;29;20062;-69
2022/07/25 06:36:38;;;;;;;9.23;7.60;;;;;;;;;;4915828;29;20053;-69
2022/07/25 06:39:05;;;;;;;9.05;8.02;;;;;;;;;;4915779;29;20059;-69
2022/07/25 06:41:32;;;;;;;9.82;8.45;;;;;;;;;;4916208;29;20058;-70
2022/07/25 06:43:58;;;;;;;9.13;7.55;;;;;;;;;;4917575;29;20052;-68
2022/07/25 06:46:28;;;;;;;9.15;8.27;;;;;;;;;;4929713;29;20055;-71
2022/07/25 06:48:55;;;;;;;9.82;7.90;;;;;;;;;;4936598;29;20051;-71
2022/07/25 06:51:22;;;;;;;8.73;7.88;;;;;;;;;;4936500;29;20103;-70
2022/07/25 06:53:49;;;;;;;9.30;8.25;;;;;;;;;;4936860;29;20130;-73
2022/07/25 06:56:16;;;;;;;10.70;8.57;;;;;;;;;;4925998;29;20052;-75
2022/07/25 06:58:45;;;;;;;12.60;9.20;;;;;;;;;;4928990;29;20048;-75
2022/07/25 07:01:12;;;;;;;10.50;9.30;;;;;;;;;;4933541;29;20062;-71
2022/07/25 07:03:39;;;;;;;9.43;8.63;;;;;;;;;;4931112;29;20505;-72
2022/07/25 07:06:09;;;;;;;8.40;7.60;;;;;;;;;;4925574;29;20073;-72
2022/07/25 07:08:36;;;;;;;9.77;7.63;;;;;;;;;;4922220;29;20048;-69
2022/07/25 07:11:03;;;;;;;8.95;8.05;;;;;;;;;;4920824;29;20047;-67
2022/07/25 07:13:30;;;;;;;9.02;8.23;;;;;;;;;;4929733;29;20074;-68
2022/07/25 07:15:57;;;;;;;8.63;7.82;;;;;;;;;;4926479;29;20056;-68
2022/07/25 07:18:24;;;;;;;8.75;7.93;;;;;;;;;;4921066;29;20499;-67
2022/07/25 07:20:52;;;;;;;9.40;7.97;;;;;;;;;;4921660;29;20055;-66
2022/07/25 07:23:19;;;;;;;8.20;7.50;;;;;;;;;;4922579;29;20047;-68
2022/07/25 07:25:46;;;;;;;8.95;8.10;;;;;;;;;;4917156;29;20538;-69
2022/07/25 07:28:13;;;;;;;9.48;7.93;;;;;;;;;;4912246;29;20126;-67
2022/07/25 07:30:40;;;;;;;9.25;6.80;;;;;;;;;;4904372;29;20052;-67
2022/07/25 07:33:26;;;;;;;7.68;6.97;;;;;;;;;;4917964;29;20047;-70
2022/07/25 07:35:55;;;;;;;9.07;8.18;;;;;;;;;;4917017;29;20256;-67
2022/07/25 07:38:23;;;;;;;8.80;7.88;;;;;;;;;;4913681;29;20062;-67
2022/07/25 07:40:50;;;;;;;7.82;7.13;;;;;;;;;;4911809;29;20052;-69
2022/07/25 07:43:16;;;;;;;8.02;7.20;;;;;;;;;;4926981;29;20059;-69
2022/07/25 07:45:43;;;;;;;9.18;7.65;;;;;;;;;;4930010;29;20052;-68
2022/07/25 07:48:10;;;;;;;8.23;7.43;;;;;;;;;;4917637;29;20048;-68
2022/07/25 07:50:37;;;;;;;8.75;7.85;;;;;;;;;;4926722;29;20048;-68
2022/07/25 07:53:05;;;;;;;8.82;7.93;;;;;;;;;;4929029;29;20047;-69
2022/07/25 07:55:44;;;;;;;8.02;7.32;;;;;;;;;;4930672;29;20056;-68
2022/07/25 07:58:14;;;;;;;8.80;8.00;;;;;;;;;;4924357;29;20080;-69
2022/07/25 08:00:43;;;;;;;10.48;8.45;;;;;;;;;;4924510;29;20048;-69
2022/07/25 08:03:10;;;;;;;8.27;7.57;;;;;;;;;;4930641;29;20075;-68
2022/07/25 08:05:41;;;;;;;8.98;8.05;;;;;;;;;;4929694;29;20064;-69
2022/07/25 08:08:10;;;;;;;10.63;8.63;;;;;;;;;;4931102;29;20048;-69
2022/07/25 08:10:40;;;;;;;9.48;8.50;;;;;;;;;;4933708;29;20108;-69
2022/07/25 08:13:14;;;;;;;11.45;9.88;;;;;;;;;;4931751;29;20054;-67
2022/07/25 08:15:42;;;;;;;8.95;8.15;;;;;;;;;;4925347;29;20044;-68
2022/07/25 08:18:09;;;;;;;8.85;8.05;;;;;;;;;;4922273;29;20060;-68
2022/07/25 08:20:43;;;;;;;9.85;8.95;;;;;;;;;;4928026;29;20044;-68
2022/07/25 08:23:10;;;;;;;9.10;8.20;;;;;;;;;;4927853;29;20058;-68
2022/07/25 08:25:37;;;;;;;8.48;7.68;;;;;;;;;;4927483;29;20048;-68
2022/07/25 08:28:05;;;;;;;9.25;8.35;;;;;;;;;;4925751;29;20063;-67
2022/07/25 08:30:32;;;;;;;11.23;8.80;;;;;;;;;;4922701;29;20072;-68
2022/07/25 08:33:04;;;;;;;8.55;7.85;;;;;;;;;;4917809;29;20142;-68
2022/07/25 08:35:32;;;;;;;9.23;8.32;;;;;;;;;;4914863;29;20048;-68
2022/07/25 08:38:00;;;;;;;8.25;7.45;;;;;;;;;;4920557;29;20072;-67
2022/07/25 08:40:28;;;;;;;11.70;8.82;;;;;;;;;;4918634;29;20052;-69
2022/07/25 08:42:55;;;;;;;9.85;8.45;;;;;;;;;;4911246;29;20048;-68
2022/07/25 08:45:23;;;;;;;8.00;7.30;;;;;;;;;;4919291;29;20049;-68
2022/07/25 08:47:51;;;;;;;9.57;8.05;;;;;;;;;;4912783;29;20052;-67
2022/07/25 08:50:20;;;;;;;10.80;8.80;;;;;;;;;;4926740;29;20058;-67
2022/07/25 08:52:47;;;;;;;8.65;7.85;;;;;;;;;;4911061;29;20071;-68
2022/07/25 08:55:18;;;;;;;8.75;7.95;;;;;;;;;;4916619;29;20423;-68
2022/07/25 08:57:46;;;;;;;9.10;8.27;;;;;;;;;;4924585;29;20076;-67
2022/07/25 09:00:25;;;;;;;8.95;8.15;;;;;;;;;;4924211;29;20312;-68
2022/07/25 09:02:55;;;;;;;8.55;7.85;;;;;;;;;;4923862;29;20059;-67
2022/07/25 09:05:23;;;;;;;8.38;7.60;;;;;;;;;;4925913;29;20112;-68
2022/07/25 09:07:51;;;;;;;9.50;8.50;;;;;;;;;;4924718;29;20052;-69
2022/07/25 09:10:22;;;;;;;9.73;8.77;;;;;;;;;;4917030;29;20052;-67
2022/07/25 09:12:54;;;;;;;9.32;8.52;;;;;;;;;;4909715;29;20052;-68
2022/07/25 09:15:23;;;;;;;10.82;8.20;;;;;;;;;;4917067;29;20079;-67
2022/07/25 09:17:51;;;;;;;8.68;7.78;;;;;;;;;;4916317;29;20048;-68
2022/07/25 09:20:20;;;;;;;9.38;8.43;;;;;;;;;;4907578;29;20059;-68
2022/07/25 09:22:47;;;;;;;9.68;8.77;;;;;;;;;;4914329;29;20090;-68
2022/07/25 09:25:24;;;;;;;8.82;8.13;;;;;;;;;;4919274;29;20448;-68
2022/07/25 09:27:51;;;;;;;9.32;8.45;;;;;;;;;;4918989;29;20056;-68
2022/07/25 09:30:18;;;;;;;8.98;8.07;;;;;;;;;;4929874;29;20423;-69
2022/07/25 09:32:45;;;;;;;8.75;7.63;;;;;;;;;;4932185;29;20062;-67
2022/07/25 09:35:12;;;;;;;12.95;8.07;;;;;;;;;;4933361;29;20476;-68
2022/07/25 09:37:39;;;;;;;11.30;7.63;;;;;;;;;;4933144;29;20052;-67
2022/07/25 09:40:15;;;;;;;8.65;7.85;;;;;;;;;;4928460;29;20059;-67
2022/07/25 09:42:44;;;;;;;8.82;7.40;;;;;;;;;;4933818;29;20048;-68
2022/07/25 09:45:13;;;;;;;8.85;8.02;;;;;;;;;;4928909;29;20063;-68
2022/07/25 09:47:55;;;;;;;7.97;7.18;;;;;;;;;;4940143;29;20070;-68
2022/07/25 09:50:23;;;;;;;8.37;7.53;;;;;;;;;;4929176;29;20075;-68
2022/07/25 09:52:51;;;;;;;7.78;7.18;;;;;;;;;;4938783;29;20092;-67
2022/07/25 09:55:19;;;;;;;8.63;7.00;;;;;;;;;;4947503;29;20138;-68
2022/07/25 09:57:47;;;;;;;8.35;7.63;;;;;;;;;;4947720;29;20059;-67
2022/07/25 10:00:18;;;;;;;8.52;7.72;;;;;;;;;;4946751;29;20052;-67
2022/07/25 10:03:01;;;;;;;8.30;7.60;;;;;;;;;;4946805;29;20055;-67
2022/07/25 10:05:40;;;;;;;7.22;6.63;;;;;;;;;;4929784;29;20048;-68
2022/07/25 10:08:07;;;;;;;7.93;7.13;;;;;;;;;;4941662;23;20040;-67
2022/07/25 10:10:39;;;;;;;11.07;7.72;;;;;;;;;;4930217;29;20053;-68
2022/07/25 10:13:09;;;;;;;7.18;6.57;;;;;;;;;;4933006;29;20499;-67
2022/07/25 10:15:49;;;;;;;7.45;6.78;;;;;;;;;;4936564;29;20483;-68
2022/07/25 10:18:20;;;;;;;8.50;7.03;;;;;;;;;;4917093;29;20426;-67
2022/07/25 10:20:49;;;;;;;7.50;6.75;;;;;;;;;;4899711;29;20055;-69
2022/07/25 10:23:17;;;;;;;8.70;7.25;;;;;;;;;;4928107;29;20052;-68
2022/07/25 10:25:44;;;;;;;7.57;6.88;;;;;;;;;;4900891;29;20055;-68
2022/07/25 10:28:17;;;;;;;7.35;6.60;;;;;;;;;;4915224;29;20051;-69
2022/07/25 10:30:43;;;;;;;7.07;6.35;;;;;;;;;;4908406;29;20052;-69
2022/07/25 10:33:12;;;;;;;6.85;6.15;;;;;;;;;;4912414;29;20503;-69
2022/07/25 10:35:39;;;;;;;8.23;6.40;;;;;;;;;;4915362;29;20553;-69
2022/07/25 10:38:06;;;;;;;7.68;6.97;;;;;;;;;;4910369;29;20056;-69
2022/07/25 10:40:43;;;;;;;7.22;6.47;;;;;;;;;;4896696;29;20052;-69
2022/07/25 10:43:17;;;;;;;7.13;6.43;;;;;;;;;;4911425;29;20055;-69
2022/07/25 10:45:56;;;;;;;6.82;6.22;;;;;;;;;;4895264;29;20056;-69
2022/07/25 10:48:25;;;;;;;7.18;6.45;;;;;;;;;;4895471;29;20461;-69
2022/07/25 10:50:57;;;;;;;7.13;6.35;;;;;;;;;;4899913;29;20143;-69
2022/07/25 10:53:34;;;;;;;6.80;6.10;;;;;;;;;;4929206;29;20074;-70
2022/07/25 10:56:22;;;;;;;6.90;6.20;;;;;;;;;;4911730;29;20056;-69
2022/07/25 10:58:59;;;;;;;6.63;6.03;;;;;;;;;;4906285;29;20056;-69
2022/07/25 11:01:30;;;;;;;6.32;5.72;;;;;;;;;;4911768;29;20055;-69
2022/07/25 11:04:01;;;;;;;8.68;6.30;;;;;;;;;;4915485;29;20460;-69
2022/07/25 11:06:46;;;;;;;6.53;6.00;;;;;;;;;;4916585;29;20063;-69
2022/07/25 11:09:26;;;;;;;6.68;5.93;;;;;;;;;;4912201;29;20048;-70
2022/07/25 11:11:57;;;;;;;6.75;6.22;;;;;;;;;;4910071;29;20483;-69
2022/07/25 11:14:31;;;;;;;6.13;5.45;;;;;;;;;;4916709;29;20048;-70
2022/07/25 11:17:19;;;;;;;5.95;5.43;;;;;;;;;;4915344;29;20534;-70
2022/07/25 11:19:57;;;;;;;7.35;6.05;;;;;;;;;;4916585;29;20219;-70
2022/07/25 11:22:24;;;;;;;6.78;6.18;;;;;;;;;;4915315;29;20494;-70
2022/07/25 11:24:51;;;;;;;6.28;5.78;;;;;;;;;;4916591;29;20494;-69
2022/07/25 11:27:29;;;;;;;6.65;6.00;;;;;;;;;;4905454;29;20150;-70
2022/07/25 11:30:15;;;;;;;6.40;5.90;;;;;;;;;;4897591;29;20053;-70
2022/07/25 11:32:43;;;;;;;7.30;5.80;;;;;;;;;;4897794;29;20059;-70
2022/07/25 11:35:11;;;;;;;5.72;5.22;;;;;;;;;;4903975;29;20068;-69
2022/07/25 11:37:40;;;;;;;7.07;6.47;;;;;;;;;;4914031;29;20538;-70
2022/07/25 11:40:08;;;;;;;7.53;5.75;;;;;;;;;;4914828;29;20052;-70
2022/07/25 11:42:39;;;;;;;5.90;5.25;;;;;;;;;;4899079;29;20044;-70
2022/07/25 11:45:23;;;;;;;6.15;5.55;;;;;;;;;;4896017;29;20048;-70
2022/07/25 11:48:07;;;;;;;11.98;5.85;;;;;;;;;;4905710;29;20172;-70
2022/07/25 11:50:38;;;;;;;6.25;5.75;;;;;;;;;;4913872;29;20046;-70
2022/07/25 11:53:08;;;;;;;7.85;7.07;;;;;;;;;;4912284;29;20056;-69
2022/07/25 11:55:39;;;;;;;6.70;6.03;;;;;;;;;;4899535;29;20074;-70
2022/07/25 11:58:06;;;;;;;6.40;5.80;;;;;;;;;;4898733;29;20405;-70
2022/07/25 12:00:33;;;;;;;5.95;5.00;;;;;;;;;;4898317;29;20311;-69
2022/07/25 12:03:10;;;;;;;6.22;5.65;;;;;;;;;;4906488;29;20052;-70
2022/07/25 12:05:44;;;;;;;6.10;5.45;;;;;;;;;;4910401;29;20108;-70
2022/07/25 12:08:12;;;;;;;5.70;5.20;;;;;;;;;;4914418;29;20427;-71
2022/07/25 12:10:39;;;;;;;6.03;5.53;;;;;;;;;;4915910;29;20054;-70
2022/07/25 12:13:06;;;;;;;4.97;4.57;;;;;;;;;;4916005;29;20472;-71
2022/07/25 12:15:39;;;;;;;6.07;4.90;;;;;;;;;;4916384;29;20066;-70
2022/07/25 12:18:09;;;;;;;5.97;5.38;;;;;;;;;;4914448;29;20426;-70
2022/07/25 12:20:41;;;;;;;4.93;4.43;;;;;;;;;;4914654;29;20043;-70
2022/07/25 12:23:10;;;;;;;5.30;4.80;;;;;;;;;;4915947;29;20059;-71
2022/07/25 12:25:38;;;;;;;5.80;5.10;;;;;;;;;;4906486;29;20055;-70
2022/07/25 12:28:05;;;;;;;5.28;4.82;;;;;;;;;;4914868;29;20048;-70
2022/07/25 12:30:32;;;;;;;6.82;6.13;;;;;;;;;;4914848;29;20066;-70
2022/07/25 12:33:00;;;;;;;6.35;5.05;;;;;;;;;;4914579;29;20138;-70
2022/07/25 12:35:26;;;;;;;5.22;4.82;;;;;;;;;;4915603;29;20092;-70
2022/07/25 12:37:53;;;;;;;5.65;4.85;;;;;;;;;;4915489;29;20079;-69
2022/07/25 12:40:20;;;;;;;5.18;4.78;;;;;;;;;;4915297;29;20063;-71
2022/07/25 12:42:48;;;;;;;5.40;5.00;;;;;;;;;;4916028;29;20066;-70
2022/07/25 12:45:16;;;;;;;5.57;4.65;;;;;;;;;;4914291;29;20496;-70
2022/07/25 12:47:44;;;;;;;5.25;4.78;;;;;;;;;;4915527;29;20060;-71
2022/07/25 12:50:12;;;;;;;5.90;4.55;;;;;;;;;;4917335;29;20052;-70
2022/07/25 12:52:39;;;;;;;5.35;4.72;;;;;;;;;;4918067;29;20567;-70
2022/07/25 12:55:11;;;;;;;6.35;4.75;;;;;;;;;;4919569;29;20056;-71
2022/07/25 12:57:38;;;;;;;5.45;4.53;;;;;;;;;;4919125;29;20048;-70
2022/07/25 13:00:07;;;;;;;5.82;5.32;;;;;;;;;;4915878;29;20050;-70
2022/07/25 13:02:33;;;;;;;4.82;4.43;;;;;;;;;;4900397;29;20079;-71
2022/07/25 13:05:00;;;;;;;5.00;4.60;;;;;;;;;;4900314;29;20127;-70
2022/07/25 13:07:27;;;;;;;5.70;5.20;;;;;;;;;;4899218;29;20063;-70
2022/07/25 13:09:54;;;;;;;6.45;5.00;;;;;;;;;;4899217;29;20052;-71
2022/07/25 13:12:22;;;;;;;5.13;4.50;;;;;;;;;;4900377;29;20049;-71
2022/07/25 13:14:49;;;;;;;12.93;5.07;;;;;;;;;;4900256;29;20059;-71
2022/07/25 13:17:16;;;;;;;5.18;4.75;;;;;;;;;;4900121;29;20063;-71
2022/07/25 13:19:43;;;;;;;5.53;5.03;;;;;;;;;;4898647;29;20053;-71
2022/07/25 13:22:09;;;;;;;11.57;5.25;;;;;;;;;;4898772;29;20564;-71
2022/07/25 13:24:38;;;;;;;6.15;5.55;;;;;;;;;;4900031;29;20515;-70
2022/07/25 13:27:05;;;;;;;5.60;5.20;;;;;;;;;;4900079;29;20495;-70
2022/07/25 13:29:32;;;;;;;5.85;5.25;;;;;;;;;;4899707;29;20053;-70
2022/07/25 13:32:00;;;;;;;5.70;5.22;;;;;;;;;;4899780;29;20045;-70
2022/07/25 13:34:27;;;;;;;5.80;5.30;;;;;;;;;;4900095;29;20063;-70
2022/07/25 13:36:53;;;;;;;6.13;5.57;;;;;;;;;;4899980;29;20048;-70
2022/07/25 13:39:21;;;;;;;5.60;5.20;;;;;;;;;;4899666;29;20056;-71
2022/07/25 13:41:48;;;;;;;6.45;5.63;;;;;;;;;;4902991;29;20127;-72
2022/07/25 13:44:15;;;;;;;6.35;4.78;;;;;;;;;;4899687;29;20516;-71
2022/07/25 13:46:41;;;;;;;8.27;5.15;;;;;;;;;;4899411;29;20053;-71
2022/07/25 13:49:11;;;;;;;5.78;5.28;;;;;;;;;;4899440;29;20057;-70
2022/07/25 13:51:38;;;;;;;6.93;5.90;;;;;;;;;;4914661;29;20048;-70
2022/07/25 13:54:05;;;;;;;5.60;5.07;;;;;;;;;;4918581;29;20059;-72
2022/07/25 13:56:33;;;;;;;5.65;5.03;;;;;;;;;;4918340;29;20048;-71
2022/07/25 13:59:01;;;;;;;9.48;5.65;;;;;;;;;;4917092;29;20427;-74
2022/07/25 14:01:27;;;;;;;7.45;5.35;;;;;;;;;;4902333;29;20059;-73
2022/07/25 14:03:54;;;;;;;5.93;5.35;;;;;;;;;;4929754;29;20112;-73
2022/07/25 14:06:21;;;;;;;4.85;4.45;;;;;;;;;;4899261;29;20052;-74
2022/07/25 14:08:47;;;;;;;5.07;4.60;;;;;;;;;;4899578;29;20052;-73
2022/07/25 14:11:14;;;;;;;8.20;5.28;;;;;;;;;;4932428;29;20492;-74
2022/07/25 14:13:42;;;;;;;5.63;4.40;;;;;;;;;;4918086;29;20063;-74
2022/07/25 14:16:09;;;;;;;7.13;5.20;;;;;;;;;;4917034;29;20051;-74
2022/07/25 14:18:35;;;;;;;5.90;5.30;;;;;;;;;;4916815;29;20056;-74
2022/07/25 14:21:02;;;;;;;6.32;5.60;;;;;;;;;;4907792;29;20059;-75
2022/07/25 14:23:29;;;;;;;7.07;5.50;;;;;;;;;;4929176;29;20049;-74
2022/07/25 14:25:57;;;;;;;6.35;5.55;;;;;;;;;;4898035;29;20140;-73
2022/07/25 14:28:24;;;;;;;7.10;5.80;;;;;;;;;;4897448;29;20052;-71
2022/07/25 14:30:51;;;;;;;6.38;5.78;;;;;;;;;;4923309;29;20056;-72
2022/07/25 14:33:18;;;;;;;9.23;6.40;;;;;;;;;;4917384;29;20058;-70
2022/07/25 14:35:44;;;;;;;7.85;5.82;;;;;;;;;;4916349;29;20135;-75
2022/07/25 14:38:11;;;;;;;6.25;5.65;;;;;;;;;;4916398;29;20048;-70
2022/07/25 14:40:40;;;;;;;6.40;5.80;;;;;;;;;;4915173;29;20512;-76
2022/07/25 14:43:07;;;;;;;7.03;5.75;;;;;;;;;;4908833;29;20051;-75
2022/07/25 14:45:35;;;;;;;7.13;6.43;;;;;;;;;;4905539;29;20410;-74